Terminal Aerodrome Forecast
Issued by NWS Charleston, WV

Current Version | Previous Version | Graphics & Text | Print | Product List | Glossary On
Versions: 1 2 3 4 5 6 7 8 9 10 11 12 13 14 15 16 17 18 19 20 21 22 23 24 25 26 27 28 29 30 31 32
000
FTUS41 KRLX 251749
TAFCRW
TAF
KCRW 251749Z 2518/2618 24005KT P6SM VCTS BKN035CB
     FM260000 VRB03KT P6SM VCTS BKN040CB
     FM260900 00000KT 5SM SHRA BR BKN015
     FM261000 VRB02KT 1SM BR BKN007
     FM261200 00000KT 3SM BR BKN015
     FM261300 00000KT P6SM BKN035=

USA.gov is the U.S. government's official web portal to all federal, state and local government web resources and services.